createdAt,value
2023-03-20T00:00:50.129Z,1013.23
2023-03-20T00:01:50.097Z,1013.26
2023-03-20T00:02:50.099Z,1013.25
2023-03-20T00:03:50.364Z,1013.28
2023-03-20T00:04:50.132Z,1013.26
2023-03-20T00:05:50.058Z,1013.26
2023-03-20T00:06:50.046Z,1013.31
2023-03-20T00:07:50.048Z,1013.30
2023-03-20T00:08:50.044Z,1013.32
2023-03-20T00:09:50.012Z,1013.32
2023-03-20T00:10:50.000Z,1013.34
2023-03-20T00:11:49.992Z,1013.32
2023-03-20T00:12:49.993Z,1013.37
2023-03-20T00:13:49.970Z,1013.42
2023-03-20T00:14:49.960Z,1013.40
2023-03-20T00:15:49.980Z,1013.44
2023-03-20T00:16:49.935Z,1013.42
2023-03-20T00:17:49.931Z,1013.45
2023-03-20T00:18:49.929Z,1013.46
2023-03-20T00:19:49.914Z,1013.45
2023-03-20T00:20:49.891Z,1013.47
2023-03-20T00:21:49.882Z,1013.48
2023-03-20T00:22:49.883Z,1013.50
2023-03-20T00:23:49.873Z,1013.46
2023-03-20T00:24:49.842Z,1013.47
2023-03-20T00:25:49.863Z,1013.48
2023-03-20T00:26:49.825Z,1013.46
2023-03-20T00:27:49.823Z,1013.44
2023-03-20T00:28:49.812Z,1013.48
2023-03-20T00:29:49.803Z,1013.47
2023-03-20T00:30:49.783Z,1013.46
2023-03-20T00:31:49.803Z,1013.52
2023-03-20T00:32:49.891Z,1013.50
2023-03-20T00:33:49.771Z,1013.51
2023-03-20T00:34:49.735Z,1013.49
2023-03-20T00:35:49.742Z,1013.54
2023-03-20T00:36:49.714Z,1013.57
2023-03-20T00:37:49.724Z,1013.62
2023-03-20T00:38:49.727Z,1013.64
2023-03-20T00:39:49.696Z,1013.64
2023-03-20T00:40:49.678Z,1013.64
2023-03-20T00:41:49.666Z,1013.65
2023-03-20T00:42:49.648Z,1013.64
2023-03-20T00:43:49.664Z,1013.70
2023-03-20T00:44:49.630Z,1013.68
2023-03-20T00:45:49.616Z,1013.71
2023-03-20T00:46:49.631Z,1013.72
2023-03-20T00:47:49.653Z,1013.75
2023-03-20T00:48:49.590Z,1013.76
2023-03-20T00:49:49.574Z,1013.74
2023-03-20T00:50:49.583Z,1013.75
2023-03-20T00:51:49.547Z,1013.78
2023-03-20T00:52:49.591Z,1013.73
2023-03-20T00:53:49.540Z,1013.78
2023-03-20T00:54:49.520Z,1013.78
2023-03-20T00:55:49.499Z,1013.79
2023-03-20T00:56:49.501Z,1013.80
2023-03-20T00:57:49.510Z,1013.80
2023-03-20T00:58:49.482Z,1013.83
2023-03-20T00:59:49.483Z,1013.78
2023-03-20T01:00:49.470Z,1013.83
2023-03-20T01:01:49.467Z,1013.75
2023-03-20T01:02:49.453Z,1013.78
2023-03-20T01:03:49.444Z,1013.77
2023-03-20T01:04:49.421Z,1013.77
2023-03-20T01:05:49.401Z,1013.79
2023-03-20T01:06:49.384Z,1013.80
2023-03-20T01:07:49.391Z,1013.84
2023-03-20T01:08:49.390Z,1013.86
2023-03-20T01:09:49.370Z,1013.88
2023-03-20T01:10:49.352Z,1013.85
2023-03-20T01:11:49.330Z,1013.90
2023-03-20T01:12:49.315Z,1013.85
2023-03-20T01:13:49.355Z,1013.87
2023-03-20T01:14:49.299Z,1013.89
2023-03-20T01:15:49.284Z,1013.89
2023-03-20T01:16:49.369Z,1013.89
2023-03-20T01:17:49.271Z,1013.87
2023-03-20T01:18:49.268Z,1013.93
2023-03-20T01:19:49.242Z,1013.88
2023-03-20T01:20:49.261Z,1013.90
2023-03-20T01:21:49.230Z,1013.90
2023-03-20T01:22:49.214Z,1013.88
2023-03-20T01:23:49.224Z,1013.86
2023-03-20T01:24:49.196Z,1013.90
2023-03-20T01:25:49.187Z,1013.88
2023-03-20T01:26:49.167Z,1013.87
2023-03-20T01:27:49.167Z,1013.85
2023-03-20T01:28:49.163Z,1013.85
2023-03-20T01:29:49.158Z,1013.85
2023-03-20T01:30:49.116Z,1013.84
2023-03-20T01:31:49.175Z,1013.87
2023-03-20T01:32:49.135Z,1013.86
2023-03-20T01:33:49.105Z,1013.88
2023-03-20T01:34:49.093Z,1013.88
2023-03-20T01:35:49.125Z,1013.88
2023-03-20T01:36:49.056Z,1013.87
2023-03-20T01:37:49.048Z,1013.86
2023-03-20T01:38:49.042Z,1013.84
2023-03-20T01:39:49.046Z,1013.83
2023-03-20T01:40:49.026Z,1013.82
2023-03-20T01:41:49.009Z,1013.83
2023-03-20T01:42:48.995Z,1013.77
2023-03-20T01:43:48.994Z,1013.74
2023-03-20T01:44:48.977Z,1013.72
2023-03-20T01:45:48.982Z,1013.71
2023-03-20T01:46:48.964Z,1013.69
2023-03-20T01:47:48.945Z,1013.70
2023-03-20T01:48:48.932Z,1013.71
2023-03-20T01:49:48.928Z,1013.66
2023-03-20T01:50:48.905Z,1013.67
2023-03-20T01:51:48.895Z,1013.70
2023-03-20T01:52:48.885Z,1013.68
2023-03-20T01:53:48.878Z,1013.67
2023-03-20T01:54:48.870Z,1013.64
2023-03-20T01:55:48.946Z,1013.64
2023-03-20T01:56:48.866Z,1013.67
2023-03-20T01:57:48.833Z,1013.64
2023-03-20T01:58:48.828Z,1013.62
2023-03-20T01:59:48.816Z,1013.61
2023-03-20T02:00:48.856Z,1013.64
2023-03-20T02:01:48.799Z,1013.62
2023-03-20T02:02:48.804Z,1013.63
2023-03-20T02:03:48.810Z,1013.59
2023-03-20T02:04:48.944Z,1013.54
2023-03-20T02:06:10.032Z,1013.55
2023-03-20T02:06:48.740Z,1013.53
2023-03-20T02:07:48.730Z,1013.55
2023-03-20T02:08:48.712Z,1013.54
2023-03-20T02:09:48.702Z,1013.52
2023-03-20T02:10:48.687Z,1013.53
2023-03-20T02:11:48.684Z,1013.58
2023-03-20T02:12:48.739Z,1013.54
2023-03-20T02:13:48.660Z,1013.55
2023-03-20T02:14:48.639Z,1013.59
2023-03-20T02:15:48.630Z,1013.60
2023-03-20T02:16:48.679Z,1013.63
2023-03-20T02:17:48.613Z,1013.63
2023-03-20T02:18:48.616Z,1013.66
2023-03-20T02:19:48.599Z,1013.63
2023-03-20T02:20:48.583Z,1013.64
2023-03-20T02:21:48.561Z,1013.61
2023-03-20T02:22:48.543Z,1013.65
2023-03-20T02:23:48.563Z,1013.66
2023-03-20T02:24:48.522Z,1013.64
2023-03-20T02:25:48.512Z,1013.63
2023-03-20T02:26:48.507Z,1013.62
2023-03-20T02:27:48.502Z,1013.61
2023-03-20T02:28:48.493Z,1013.62
2023-03-20T02:29:48.488Z,1013.68
2023-03-20T02:30:48.501Z,1013.73
2023-03-20T02:31:48.451Z,1013.75
2023-03-20T02:32:48.503Z,1013.74
2023-03-20T02:33:48.439Z,1013.73
2023-03-20T02:34:48.411Z,1013.74
2023-03-20T02:35:48.430Z,1013.70
2023-03-20T02:36:48.391Z,1013.68
2023-03-20T02:37:48.392Z,1013.72
2023-03-20T02:38:48.392Z,1013.71
2023-03-20T02:39:48.380Z,1013.73
2023-03-20T02:40:48.352Z,1013.75
2023-03-20T02:41:48.371Z,1013.74
2023-03-20T02:42:48.327Z,1013.76
2023-03-20T02:43:48.345Z,1013.72
2023-03-20T02:44:48.303Z,1013.69
2023-03-20T02:45:48.320Z,1013.66
2023-03-20T02:46:48.282Z,1013.63
2023-03-20T02:47:48.286Z,1013.59
2023-03-20T02:48:48.266Z,1013.54
2023-03-20T02:49:48.253Z,1013.54
2023-03-20T02:50:48.243Z,1013.51
2023-03-20T02:51:48.237Z,1013.56
2023-03-20T02:52:48.220Z,1013.52
2023-03-20T02:53:48.226Z,1013.62
2023-03-20T02:54:48.186Z,1013.63
2023-03-20T02:55:48.199Z,1013.67
2023-03-20T02:56:48.180Z,1013.63
2023-03-20T02:57:48.162Z,1013.67
2023-03-20T02:58:48.157Z,1013.64
2023-03-20T02:59:48.142Z,1013.59
2023-03-20T03:00:48.148Z,1013.55
2023-03-20T03:01:48.175Z,1013.47
2023-03-20T03:02:48.201Z,1013.39
2023-03-20T03:03:48.107Z,1013.34
2023-03-20T03:04:48.096Z,1013.33
2023-03-20T03:05:48.085Z,1013.28
2023-03-20T03:06:48.057Z,1013.31
2023-03-20T03:07:48.061Z,1013.32
2023-03-20T03:08:48.054Z,1013.41
2023-03-20T03:09:48.036Z,1013.47
2023-03-20T03:10:48.017Z,1013.49
2023-03-20T03:11:48.013Z,1013.54
2023-03-20T03:12:47.989Z,1013.56
2023-03-20T03:13:48.230Z,1013.60
2023-03-20T03:14:47.987Z,1013.62
2023-03-20T03:15:48.039Z,1013.62
2023-03-20T03:16:47.953Z,1013.63
2023-03-20T03:17:47.956Z,1013.65
2023-03-20T03:18:47.940Z,1013.69
2023-03-20T03:19:47.928Z,1013.66
2023-03-20T03:20:47.918Z,1013.72
2023-03-20T03:21:47.912Z,1013.70
2023-03-20T03:22:47.902Z,1013.72
2023-03-20T03:23:47.910Z,1013.72
2023-03-20T03:24:47.872Z,1013.72
2023-03-20T03:25:47.859Z,1013.73
2023-03-20T03:26:47.849Z,1013.74
2023-03-20T03:27:47.846Z,1013.71
2023-03-20T03:28:47.838Z,1013.74
2023-03-20T03:29:47.831Z,1013.74
2023-03-20T03:30:47.808Z,1013.69
2023-03-20T03:31:47.804Z,1013.64
2023-03-20T03:32:47.816Z,1013.67
2023-03-20T03:33:47.774Z,1013.65
2023-03-20T03:34:47.778Z,1013.66
2023-03-20T03:35:47.790Z,1013.65
2023-03-20T03:36:47.731Z,1013.64
2023-03-20T03:37:47.731Z,1013.71
2023-03-20T03:38:47.721Z,1013.67
2023-03-20T03:39:47.710Z,1013.78
2023-03-20T03:40:47.706Z,1013.77
2023-03-20T03:41:47.682Z,1013.77
2023-03-20T03:42:47.662Z,1013.80
2023-03-20T03:43:47.672Z,1013.76
2023-03-20T03:44:47.642Z,1013.73
2023-03-20T03:45:47.636Z,1013.72
2023-03-20T03:46:47.678Z,1013.70
2023-03-20T03:47:47.604Z,1013.68
2023-03-20T03:48:47.612Z,1013.63
2023-03-20T03:49:47.594Z,1013.57
2023-03-20T03:50:47.586Z,1013.48
2023-03-20T03:51:47.577Z,1013.48
2023-03-20T03:52:47.568Z,1013.44
2023-03-20T03:53:47.573Z,1013.46
2023-03-20T03:54:47.535Z,1013.46
2023-03-20T03:55:47.553Z,1013.48
2023-03-20T03:56:47.517Z,1013.48
2023-03-20T03:57:47.495Z,1013.51
2023-03-20T03:58:47.508Z,1013.48
2023-03-20T03:59:47.476Z,1013.53
2023-03-20T04:00:47.477Z,1013.57
2023-03-20T04:01:47.502Z,1013.59
2023-03-20T04:02:47.489Z,1013.61
2023-03-20T04:03:47.438Z,1013.64
2023-03-20T04:04:47.512Z,1013.67
2023-03-20T04:05:47.415Z,1013.71
2023-03-20T04:06:47.408Z,1013.78
2023-03-20T04:07:47.389Z,1013.74
2023-03-20T04:08:47.437Z,1013.74
2023-03-20T04:09:47.368Z,1013.72
2023-03-20T04:10:47.383Z,1013.71
2023-03-20T04:11:47.351Z,1013.69
2023-03-20T04:12:47.349Z,1013.73
2023-03-20T04:13:47.340Z,1013.76
2023-03-20T04:14:47.324Z,1013.78
2023-03-20T04:15:47.324Z,1013.80
2023-03-20T04:16:47.304Z,1013.86
2023-03-20T04:17:47.281Z,1013.90
2023-03-20T04:18:47.297Z,1013.94
2023-03-20T04:19:47.261Z,1013.95
2023-03-20T04:20:47.262Z,1013.97
2023-03-20T04:21:47.244Z,1013.95
2023-03-20T04:22:47.243Z,1013.93
2023-03-20T04:23:47.255Z,1013.92
2023-03-20T04:24:47.219Z,1013.91
2023-03-20T04:25:47.198Z,1013.90
2023-03-20T04:26:47.195Z,1013.83
2023-03-20T04:27:47.168Z,1013.90
2023-03-20T04:28:47.177Z,1013.88
2023-03-20T04:29:47.156Z,1013.85
2023-03-20T04:30:47.142Z,1013.85
2023-03-20T04:31:47.227Z,1013.86
2023-03-20T04:32:47.168Z,1013.86
2023-03-20T04:33:47.114Z,1013.85
2023-03-20T04:34:47.097Z,1013.86
2023-03-20T04:35:47.143Z,1013.85
2023-03-20T04:36:47.080Z,1013.86
2023-03-20T04:37:47.066Z,1013.84
2023-03-20T04:38:47.084Z,1013.85
2023-03-20T04:39:47.060Z,1013.83
2023-03-20T04:40:47.053Z,1013.79
2023-03-20T04:41:47.020Z,1013.77
2023-03-20T04:42:47.027Z,1013.83
2023-03-20T04:43:47.043Z,1013.82
2023-03-20T04:44:46.986Z,1013.87
2023-03-20T04:45:47.027Z,1013.84
2023-03-20T04:46:46.968Z,1013.85
2023-03-20T04:47:46.956Z,1013.82
2023-03-20T04:48:46.958Z,1013.80
2023-03-20T04:49:46.928Z,1013.81
2023-03-20T04:50:46.926Z,1013.79
2023-03-20T04:51:46.921Z,1013.78
2023-03-20T04:52:46.906Z,1013.75
2023-03-20T04:53:46.899Z,1013.78
2023-03-20T04:54:46.879Z,1013.73
2023-03-20T04:55:46.871Z,1013.69
2023-03-20T04:56:46.858Z,1013.68
2023-03-20T04:57:46.839Z,1013.65
2023-03-20T04:58:46.851Z,1013.59
2023-03-20T04:59:46.819Z,1013.60
2023-03-20T05:00:46.869Z,1013.55
2023-03-20T05:01:46.805Z,1013.57
2023-03-20T05:02:46.800Z,1013.58
2023-03-20T05:03:46.835Z,1013.59
2023-03-20T05:04:46.779Z,1013.61
2023-03-20T05:05:46.764Z,1013.55
2023-03-20T05:06:46.747Z,1013.54
2023-03-20T05:07:46.748Z,1013.57
2023-03-20T05:08:46.757Z,1013.54
2023-03-20T05:09:46.716Z,1013.56
2023-03-20T05:10:46.709Z,1013.51
2023-03-20T05:11:46.706Z,1013.55
2023-03-20T05:12:46.678Z,1013.57
2023-03-20T05:13:46.687Z,1013.60
2023-03-20T05:14:46.758Z,1013.59
2023-03-20T05:15:46.669Z,1013.58
2023-03-20T05:16:46.688Z,1013.59
2023-03-20T05:17:46.736Z,1013.60
2023-03-20T05:18:46.633Z,1013.59
2023-03-20T05:19:46.612Z,1013.55
2023-03-20T05:20:46.588Z,1013.54
2023-03-20T05:21:46.577Z,1013.53
2023-03-20T05:22:46.572Z,1013.51
2023-03-20T05:23:46.580Z,1013.51
2023-03-20T05:24:46.549Z,1013.52
2023-03-20T05:25:46.611Z,1013.50
2023-03-20T05:26:46.523Z,1013.53
2023-03-20T05:27:46.528Z,1013.52
2023-03-20T05:28:46.521Z,1013.52
2023-03-20T05:29:46.578Z,1013.50
2023-03-20T05:30:46.538Z,1013.47
2023-03-20T05:31:46.484Z,1013.46
2023-03-20T05:32:46.527Z,1013.47
2023-03-20T05:33:46.474Z,1013.43
2023-03-20T05:34:46.472Z,1013.45
2023-03-20T05:35:46.583Z,1013.43
2023-03-20T05:36:46.442Z,1013.48
2023-03-20T05:37:46.420Z,1013.48
2023-03-20T05:38:46.398Z,1013.46
2023-03-20T05:39:46.398Z,1013.56
2023-03-20T05:40:46.386Z,1013.50
2023-03-20T05:41:46.372Z,1013.57
2023-03-20T05:42:46.350Z,1013.58
2023-03-20T05:43:46.355Z,1013.57
2023-03-20T05:44:46.333Z,1013.61
2023-03-20T05:45:46.365Z,1013.54
2023-03-20T05:46:46.325Z,1013.54
2023-03-20T05:47:46.300Z,1013.54
2023-03-20T05:48:46.304Z,1013.53
2023-03-20T05:49:46.280Z,1013.57
2023-03-20T05:50:46.270Z,1013.52
2023-03-20T05:51:46.266Z,1013.52
2023-03-20T05:52:46.251Z,1013.53
2023-03-20T05:53:46.240Z,1013.55
2023-03-20T05:54:46.220Z,1013.54
2023-03-20T05:55:46.222Z,1013.59
2023-03-20T05:56:46.252Z,1013.62
2023-03-20T05:57:46.200Z,1013.62
2023-03-20T05:58:46.196Z,1013.63
2023-03-20T05:59:46.170Z,1013.60
2023-03-20T06:00:46.154Z,1013.63
2023-03-20T06:01:46.149Z,1013.64
2023-03-20T06:02:47.457Z,1013.64
2023-03-20T06:03:46.181Z,1013.71
2023-03-20T06:04:46.103Z,1013.69
2023-03-20T06:05:46.378Z,1013.71
2023-03-20T06:06:46.083Z,1013.77
2023-03-20T06:07:46.089Z,1013.75
2023-03-20T06:08:46.087Z,1013.78
2023-03-20T06:09:46.992Z,1013.74
2023-03-20T06:10:46.474Z,1013.75
2023-03-20T06:11:46.106Z,1013.76
2023-03-20T06:12:46.026Z,1013.67
2023-03-20T06:13:46.029Z,1013.69
2023-03-20T06:14:46.012Z,1013.69
2023-03-20T06:15:46.009Z,1013.69
2023-03-20T06:16:45.988Z,1013.73
2023-03-20T06:17:45.977Z,1013.74
2023-03-20T06:18:45.967Z,1013.75
2023-03-20T06:19:45.955Z,1013.73
2023-03-20T06:20:45.945Z,1013.75
2023-03-20T06:21:45.938Z,1013.79
2023-03-20T06:22:45.937Z,1013.78
2023-03-20T06:23:45.927Z,1013.75
2023-03-20T06:24:45.893Z,1013.81
2023-03-20T06:25:45.917Z,1013.79
2023-03-20T06:26:45.882Z,1013.82
2023-03-20T06:27:45.875Z,1013.76
2023-03-20T06:28:45.868Z,1013.79
2023-03-20T06:29:45.840Z,1013.84
2023-03-20T06:30:45.834Z,1013.80
2023-03-20T06:31:45.831Z,1013.82
2023-03-20T06:32:45.838Z,1013.75
2023-03-20T06:33:45.806Z,1013.71
2023-03-20T06:34:45.797Z,1013.70
2023-03-20T06:35:45.862Z,1013.66
2023-03-20T06:36:45.759Z,1013.66
2023-03-20T06:37:45.758Z,1013.65
2023-03-20T06:38:45.761Z,1013.64
2023-03-20T06:39:45.728Z,1013.66
2023-03-20T06:40:45.707Z,1013.67
2023-03-20T06:41:45.747Z,1013.67
2023-03-20T06:42:45.686Z,1013.72
2023-03-20T06:43:45.707Z,1013.69
2023-03-20T06:44:45.682Z,1013.73
2023-03-20T06:45:45.669Z,1013.75
2023-03-20T06:46:45.685Z,1013.73
2023-03-20T06:47:45.643Z,1013.77
2023-03-20T06:48:45.646Z,1013.73
2023-03-20T06:49:46.102Z,1013.74
2023-03-20T06:50:45.608Z,1013.79
2023-03-20T06:51:45.587Z,1013.78
2023-03-20T06:52:45.581Z,1013.74
2023-03-20T06:53:45.590Z,1013.78
2023-03-20T06:54:45.562Z,1013.78
2023-03-20T06:55:45.554Z,1013.75
2023-03-20T06:56:45.560Z,1013.70
2023-03-20T06:57:45.530Z,1013.71
2023-03-20T06:58:45.537Z,1013.72
2023-03-20T06:59:45.524Z,1013.70
2023-03-20T07:00:45.498Z,1013.73
2023-03-20T07:01:45.538Z,1013.73
2023-03-20T07:02:45.477Z,1013.69
2023-03-20T07:03:45.470Z,1013.68
2023-03-20T07:04:45.495Z,1013.72
2023-03-20T07:05:45.456Z,1013.77
2023-03-20T07:06:45.444Z,1013.76
2023-03-20T07:07:45.426Z,1013.81
2023-03-20T07:08:45.414Z,1013.76
2023-03-20T07:09:45.399Z,1013.80
2023-03-20T07:10:45.418Z,1013.69
2023-03-20T07:11:45.374Z,1013.73
2023-03-20T07:12:45.374Z,1013.77
2023-03-20T07:13:46.463Z,1013.76
2023-03-20T07:14:45.357Z,1013.77
2023-03-20T07:16:01.298Z,1013.76
2023-03-20T07:16:46.343Z,1013.84
2023-03-20T07:17:45.319Z,1013.84
2023-03-20T07:18:45.308Z,1013.91
2023-03-20T07:19:45.298Z,1013.94
2023-03-20T07:20:45.718Z,1013.98
2023-03-20T07:21:45.279Z,1013.91
2023-03-20T07:22:45.273Z,1013.94
2023-03-20T07:23:45.273Z,1013.99
2023-03-20T07:24:47.228Z,1014.05
2023-03-20T07:25:45.631Z,1014.08
2023-03-20T07:26:45.231Z,1014.14
2023-03-20T07:27:45.200Z,1014.15
2023-03-20T07:28:45.224Z,1014.14
2023-03-20T07:29:45.312Z,1014.15
2023-03-20T07:30:45.213Z,1014.15
2023-03-20T07:31:45.189Z,1014.15
2023-03-20T07:32:45.187Z,1014.20
2023-03-20T07:33:45.174Z,1014.19
2023-03-20T07:34:45.132Z,1014.21
2023-03-20T07:35:45.216Z,1014.23
2023-03-20T07:36:45.310Z,1014.25
2023-03-20T07:37:45.190Z,1014.24
2023-03-20T07:38:45.223Z,1014.26
2023-03-20T07:39:45.211Z,1014.26
2023-03-20T07:40:45.260Z,1014.28
2023-03-20T07:41:45.164Z,1014.30
2023-03-20T07:42:45.319Z,1014.23
2023-03-20T07:43:45.155Z,1014.25
2023-03-20T07:44:45.135Z,1014.28
2023-03-20T07:45:45.094Z,1014.32
2023-03-20T07:46:45.081Z,1014.32
2023-03-20T07:47:45.008Z,1014.37
2023-03-20T07:48:45.011Z,1014.40
2023-03-20T07:49:44.961Z,1014.40
2023-03-20T07:50:45.004Z,1014.38
2023-03-20T07:51:44.943Z,1014.38
2023-03-20T07:52:44.940Z,1014.42
2023-03-20T07:53:44.942Z,1014.40
2023-03-20T07:54:45.041Z,1014.39
2023-03-20T07:55:44.902Z,1014.41
2023-03-20T07:56:44.904Z,1014.40
2023-03-20T07:57:44.895Z,1014.40
2023-03-20T07:58:44.936Z,1014.38
2023-03-20T07:59:44.861Z,1014.35
2023-03-20T08:00:44.974Z,1014.38
2023-03-20T08:01:44.866Z,1014.36
2023-03-20T08:02:45.076Z,1014.38
2023-03-20T08:03:44.943Z,1014.39
2023-03-20T08:04:44.834Z,1014.36
2023-03-20T08:05:47.224Z,1014.42
2023-03-20T08:06:44.782Z,1014.42
2023-03-20T08:07:44.771Z,1014.51
2023-03-20T08:08:44.801Z,1014.49
2023-03-20T08:09:44.773Z,1014.52
2023-03-20T08:10:44.742Z,1014.54
2023-03-20T08:11:44.775Z,1014.54
2023-03-20T08:12:44.848Z,1014.57
2023-03-20T08:13:44.733Z,1014.60
2023-03-20T08:14:44.714Z,1014.60
2023-03-20T08:15:44.690Z,1014.60
2023-03-20T08:16:44.720Z,1014.62
2023-03-20T08:17:44.674Z,1014.60
2023-03-20T08:18:44.693Z,1014.64
2023-03-20T08:19:44.649Z,1014.61
2023-03-20T08:20:44.662Z,1014.64
2023-03-20T08:21:44.634Z,1014.62
2023-03-20T08:22:44.619Z,1014.67
2023-03-20T08:23:44.616Z,1014.69
2023-03-20T08:24:44.599Z,1014.61
2023-03-20T08:25:44.810Z,1014.65
2023-03-20T08:26:44.582Z,1014.65
2023-03-20T08:27:44.553Z,1014.71
2023-03-20T08:28:47.816Z,1014.67
2023-03-20T08:29:44.536Z,1014.66
2023-03-20T08:30:44.610Z,1014.64
2023-03-20T08:31:44.519Z,1014.60
2023-03-20T08:32:44.539Z,1014.60
2023-03-20T08:33:44.516Z,1014.62
2023-03-20T08:34:44.512Z,1014.63
2023-03-20T08:35:44.629Z,1014.67
2023-03-20T08:36:44.532Z,1014.67
2023-03-20T08:37:44.469Z,1014.68
2023-03-20T08:38:44.460Z,1014.68
2023-03-20T08:39:44.446Z,1014.69
2023-03-20T08:40:44.416Z,1014.69
2023-03-20T08:41:44.408Z,1014.67
2023-03-20T08:42:44.416Z,1014.65
2023-03-20T08:43:44.495Z,1014.69
2023-03-20T08:44:44.387Z,1014.61
2023-03-20T08:45:44.396Z,1014.63
2023-03-20T08:46:44.367Z,1014.64
2023-03-20T08:47:44.393Z,1014.63
2023-03-20T08:48:44.399Z,1014.66
2023-03-20T08:49:44.380Z,1014.64
2023-03-20T08:50:44.375Z,1014.60
2023-03-20T08:51:44.379Z,1014.55
2023-03-20T08:52:44.467Z,1014.52
2023-03-20T08:53:44.309Z,1014.56
2023-03-20T08:54:44.461Z,1014.53
2023-03-20T08:55:44.276Z,1014.49
2023-03-20T08:56:44.766Z,1014.50
2023-03-20T08:57:44.257Z,1014.52
2023-03-20T08:58:44.238Z,1014.51
2023-03-20T08:59:44.206Z,1014.55
2023-03-20T09:00:44.226Z,1014.54
2023-03-20T09:01:49.706Z,1014.57
2023-03-20T09:02:45.222Z,1014.59
2023-03-20T09:03:44.195Z,1014.57
2023-03-20T09:04:44.181Z,1014.65
2023-03-20T09:05:44.160Z,1014.65
2023-03-20T09:06:44.141Z,1014.62
2023-03-20T09:07:44.180Z,1014.60
2023-03-20T09:08:44.141Z,1014.57
2023-03-20T09:09:44.117Z,1014.65
2023-03-20T09:10:44.187Z,1014.62
2023-03-20T09:11:44.132Z,1014.60
2023-03-20T09:12:44.111Z,1014.64
2023-03-20T09:13:44.512Z,1014.68
2023-03-20T09:14:44.090Z,1014.63
2023-03-20T09:15:44.060Z,1014.61
2023-03-20T09:16:44.020Z,1014.57
2023-03-20T09:17:44.018Z,1014.59
2023-03-20T09:18:44.156Z,1014.61
2023-03-20T09:19:44.030Z,1014.62
2023-03-20T09:20:43.985Z,1014.65
2023-03-20T09:21:43.964Z,1014.58
2023-03-20T09:22:43.954Z,1014.57
2023-03-20T09:23:43.962Z,1014.55
2023-03-20T09:24:43.953Z,1014.57
2023-03-20T09:25:43.947Z,1014.52
2023-03-20T09:26:43.931Z,1014.53
2023-03-20T09:27:43.925Z,1014.53
2023-03-20T09:28:43.982Z,1014.53
2023-03-20T09:29:44.042Z,1014.54
2023-03-20T09:30:44.098Z,1014.51
2023-03-20T09:31:43.928Z,1014.52
2023-03-20T09:32:43.935Z,1014.55
2023-03-20T09:33:43.836Z,1014.56
2023-03-20T09:34:43.814Z,1014.58
2023-03-20T09:35:44.120Z,1014.59
2023-03-20T09:36:43.803Z,1014.58
2023-03-20T09:37:43.812Z,1014.58
2023-03-20T09:38:44.059Z,1014.58
2023-03-20T09:39:43.850Z,1014.56
2023-03-20T09:40:43.756Z,1014.53
2023-03-20T09:41:56.294Z,1014.55
2023-03-20T09:42:44.747Z,1014.57
2023-03-20T09:43:43.749Z,1014.56
2023-03-20T09:44:43.708Z,1014.57
2023-03-20T09:45:43.697Z,1014.57
2023-03-20T09:46:43.720Z,1014.61
2023-03-20T09:47:43.725Z,1014.55
2023-03-20T09:48:43.659Z,1014.55
2023-03-20T09:49:43.667Z,1014.56
2023-03-20T09:50:43.669Z,1014.57
2023-03-20T09:51:43.748Z,1014.60
2023-03-20T09:52:43.642Z,1014.62
2023-03-20T09:53:43.701Z,1014.60
2023-03-20T09:54:53.971Z,1014.57
2023-03-20T09:55:44.775Z,1014.59
2023-03-20T09:56:43.584Z,1014.61
2023-03-20T09:57:43.563Z,1014.59
2023-03-20T09:58:43.595Z,1014.58
2023-03-20T09:59:43.550Z,1014.60
2023-03-20T10:00:43.551Z,1014.54
2023-03-20T10:01:43.575Z,1014.52
2023-03-20T10:02:43.552Z,1014.56
2023-03-20T10:03:43.519Z,1014.54
2023-03-20T10:04:43.637Z,1014.51
2023-03-20T10:05:43.497Z,1014.53
2023-03-20T10:06:43.465Z,1014.51
2023-03-20T10:07:43.456Z,1014.50
2023-03-20T10:08:43.476Z,1014.49
2023-03-20T10:09:43.434Z,1014.47
2023-03-20T10:10:43.445Z,1014.47
2023-03-20T10:11:43.404Z,1014.50
2023-03-20T10:12:43.415Z,1014.48
2023-03-20T10:13:43.395Z,1014.40
2023-03-20T10:14:43.377Z,1014.41
2023-03-20T10:15:43.374Z,1014.46
2023-03-20T10:16:43.357Z,1014.47
2023-03-20T10:17:43.343Z,1014.45
2023-03-20T10:18:43.393Z,1014.46
2023-03-20T10:19:43.325Z,1014.47
2023-03-20T10:20:43.306Z,1014.48
2023-03-20T10:21:43.299Z,1014.54
2023-03-20T10:22:43.286Z,1014.47
2023-03-20T10:23:43.293Z,1014.47
2023-03-20T10:24:43.268Z,1014.49
2023-03-20T10:25:43.246Z,1014.53
2023-03-20T10:26:43.245Z,1014.46
2023-03-20T10:27:43.289Z,1014.45
2023-03-20T10:28:43.231Z,1014.46
2023-03-20T10:29:43.209Z,1014.48
2023-03-20T10:30:43.213Z,1014.46
2023-03-20T10:31:43.271Z,1014.48
2023-03-20T10:32:43.253Z,1014.37
2023-03-20T10:33:43.225Z,1014.40
2023-03-20T10:34:43.158Z,1014.39
2023-03-20T10:35:43.191Z,1014.43
2023-03-20T10:36:43.140Z,1014.41
2023-03-20T10:37:43.110Z,1014.43
2023-03-20T10:38:43.170Z,1014.44
2023-03-20T10:39:43.109Z,1014.39
2023-03-20T10:40:43.094Z,1014.36
2023-03-20T10:41:43.083Z,1014.41
2023-03-20T10:42:43.076Z,1014.41
2023-03-20T10:43:43.492Z,1014.47
2023-03-20T10:44:43.065Z,1014.44
2023-03-20T10:45:43.038Z,1014.44
2023-03-20T10:46:43.067Z,1014.37
2023-03-20T10:47:43.052Z,1014.42
2023-03-20T10:48:43.013Z,1014.43
2023-03-20T10:49:43.001Z,1014.41
2023-03-20T10:50:42.984Z,1014.41
2023-03-20T10:51:42.957Z,1014.40
2023-03-20T10:52:42.983Z,1014.37
2023-03-20T10:53:42.955Z,1014.37
2023-03-20T10:54:42.949Z,1014.33
2023-03-20T10:55:42.996Z,1014.40
2023-03-20T10:56:42.904Z,1014.37
2023-03-20T10:57:42.914Z,1014.35
2023-03-20T10:58:42.905Z,1014.32
2023-03-20T10:59:43.028Z,1014.37
2023-03-20T11:00:42.884Z,1014.35
2023-03-20T11:01:42.856Z,1014.36
2023-03-20T11:02:42.851Z,1014.39
2023-03-20T11:03:42.863Z,1014.40
2023-03-20T11:04:42.832Z,1014.42
2023-03-20T11:05:43.109Z,1014.37
2023-03-20T11:06:42.811Z,1014.34
2023-03-20T11:07:42.794Z,1014.38
2023-03-20T11:08:42.810Z,1014.42
2023-03-20T11:09:42.772Z,1014.37
2023-03-20T11:10:42.769Z,1014.38
2023-03-20T11:11:43.054Z,1014.37
2023-03-20T11:12:42.740Z,1014.41
2023-03-20T11:13:42.767Z,1014.39
2023-03-20T11:14:42.742Z,1014.37
2023-03-20T11:15:42.697Z,1014.36
2023-03-20T11:16:42.819Z,1014.39
2023-03-20T11:17:43.057Z,1014.32
2023-03-20T11:18:42.714Z,1014.34
2023-03-20T11:19:42.722Z,1014.30
2023-03-20T11:20:42.670Z,1014.30
2023-03-20T11:21:42.635Z,1014.30
2023-03-20T11:22:42.645Z,1014.32
2023-03-20T11:23:42.624Z,1014.34
2023-03-20T11:24:42.618Z,1014.31
2023-03-20T11:25:42.673Z,1014.29
2023-03-20T11:26:42.621Z,1014.27
2023-03-20T11:27:42.682Z,1014.26
2023-03-20T11:28:42.634Z,1014.30
2023-03-20T11:29:45.567Z,1014.25
2023-03-20T11:31:01.442Z,1014.22
2023-03-20T11:31:43.571Z,1014.22
2023-03-20T11:32:42.532Z,1014.18
2023-03-20T11:33:42.542Z,1014.17
2023-03-20T11:34:42.758Z,1014.23
2023-03-20T11:35:42.986Z,1014.18
2023-03-20T11:36:48.905Z,1014.18
2023-03-20T11:37:43.457Z,1014.20
2023-03-20T11:38:42.479Z,1014.17
2023-03-20T11:39:42.461Z,1014.20
2023-03-20T11:40:43.110Z,1014.15
2023-03-20T11:41:42.408Z,1014.14
2023-03-20T11:42:42.398Z,1014.12
2023-03-20T11:43:42.419Z,1014.12
2023-03-20T11:44:45.603Z,1014.07
2023-03-20T11:45:44.441Z,1014.04
2023-03-20T11:46:44.578Z,1014.04
2023-03-20T11:47:43.972Z,1014.03
2023-03-20T11:48:45.896Z,1014.00
2023-03-20T11:49:43.950Z,1013.98
2023-03-20T11:50:45.628Z,1014.00
2023-03-20T11:51:43.749Z,1014.01
2023-03-20T11:52:44.444Z,1014.00
2023-03-20T11:53:49.379Z,1013.99
2023-03-20T11:54:42.274Z,1014.00
2023-03-20T11:55:42.246Z,1013.95
2023-03-20T11:56:59.862Z,1013.94
2023-03-20T11:58:43.074Z,1013.92
2023-03-20T11:59:43.038Z,1013.94
2023-03-20T12:00:43.043Z,1013.91
2023-03-20T12:01:43.052Z,1013.91
2023-03-20T12:02:43.346Z,1013.91
2023-03-20T12:03:43.242Z,1013.94
2023-03-20T12:04:43.068Z,1013.91
2023-03-20T12:05:43.061Z,1013.88
2023-03-20T12:06:42.950Z,1013.86